createdAt,value
2018-09-19T00:00:44.740Z,16.37
2018-09-19T00:03:17.675Z,16.35
2018-09-19T00:05:50.276Z,16.32
2018-09-19T00:08:22.932Z,16.26
2018-09-19T00:10:58.325Z,16.26
2018-09-19T00:13:31.481Z,16.19
2018-09-19T00:16:04.137Z,16.11
2018-09-19T00:18:36.989Z,16.04
2018-09-19T00:21:09.428Z,16.01
2018-09-19T00:23:42.003Z,16.00
2018-09-19T00:26:15.297Z,15.97
2018-09-19T00:28:47.799Z,15.90
2018-09-19T00:31:22.029Z,15.87
2018-09-19T00:33:56.427Z,15.74
2018-09-19T00:36:29.188Z,15.61
2018-09-19T00:39:01.788Z,15.52
2018-09-19T00:41:35.509Z,15.43
2018-09-19T00:44:08.979Z,15.33
2018-09-19T00:46:42.192Z,15.23
2018-09-19T00:49:15.616Z,15.15
2018-09-19T00:51:48.198Z,15.06
2018-09-19T00:54:20.949Z,15.01
2018-09-19T00:56:54.753Z,15.03
2018-09-19T00:59:27.334Z,15.00
2018-09-19T01:01:59.869Z,15.00
2018-09-19T01:04:33.107Z,15.11
2018-09-19T01:07:06.008Z,15.08
2018-09-19T01:09:39.730Z,15.01
2018-09-19T01:12:15.385Z,14.94
2018-09-19T01:14:47.843Z,14.85
2018-09-19T01:17:20.520Z,14.89
2018-09-19T01:19:53.470Z,14.89
2018-09-19T01:22:26.074Z,14.85
2018-09-19T01:24:58.572Z,14.76
2018-09-19T01:27:31.424Z,14.70
2018-09-19T01:30:06.233Z,14.66
2018-09-19T01:32:38.832Z,14.58
2018-09-19T01:35:12.021Z,14.55
2018-09-19T01:37:44.599Z,14.49
2018-09-19T01:40:17.184Z,14.46
2018-09-19T01:42:50.161Z,14.32
2018-09-19T01:45:22.714Z,14.22
2018-09-19T01:47:55.245Z,14.14
2018-09-19T01:50:28.121Z,14.05
2018-09-19T01:53:00.619Z,13.94
2018-09-19T01:55:33.264Z,13.85
2018-09-19T01:58:07.486Z,13.83
2018-09-19T02:00:40.074Z,13.85
2018-09-19T02:03:12.552Z,13.82
2018-09-19T02:05:46.536Z,13.81
2018-09-19T02:08:19.772Z,13.79
2018-09-19T02:10:52.484Z,13.87
2018-09-19T02:13:25.583Z,13.90
2018-09-19T02:15:58.321Z,13.79
2018-09-19T02:18:30.940Z,13.69
2018-09-19T02:21:06.231Z,13.60
2018-09-19T02:23:39.620Z,13.55
2018-09-19T02:26:12.416Z,13.56
2018-09-19T02:28:45.796Z,13.52
2018-09-19T02:31:18.361Z,13.48
2018-09-19T02:33:51.992Z,13.56
2018-09-19T02:36:26.055Z,13.60
2018-09-19T02:38:58.661Z,13.61
2018-09-19T02:41:31.571Z,13.61
2018-09-19T02:44:06.352Z,13.59
2018-09-19T02:46:38.959Z,13.67
2018-09-19T02:49:11.464Z,13.61
2018-09-19T02:51:44.305Z,13.60
2018-09-19T02:54:16.812Z,13.58
2018-09-19T02:56:53.460Z,13.55
2018-09-19T02:59:28.466Z,13.50
2018-09-19T03:02:01.181Z,13.47
2018-09-19T03:04:34.130Z,13.46
2018-09-19T03:07:06.568Z,13.44
2018-09-19T03:09:39.040Z,13.38
2018-09-19T03:12:11.888Z,13.35
2018-09-19T03:14:44.448Z,13.31
2018-09-19T03:17:17.158Z,13.33
2018-09-19T03:19:50.811Z,13.32
2018-09-19T03:22:31.081Z,13.28
2018-09-19T03:25:04.563Z,13.38
2018-09-19T03:27:41.059Z,13.48
2018-09-19T03:30:16.419Z,13.44
2018-09-19T03:32:49.938Z,13.47
2018-09-19T03:35:23.352Z,13.53
2018-09-19T03:37:56.005Z,13.66
2018-09-19T03:40:28.547Z,13.74
2018-09-19T03:43:01.604Z,13.76
2018-09-19T03:45:34.142Z,13.78
2018-09-19T03:48:07.577Z,13.77
2018-09-19T03:50:40.508Z,13.79
2018-09-19T03:53:13.096Z,13.84
2018-09-19T03:55:45.654Z,13.89
2018-09-19T03:58:18.911Z,13.87
2018-09-19T04:00:52.540Z,13.80
2018-09-19T04:03:25.266Z,13.75
2018-09-19T04:05:58.055Z,13.76
2018-09-19T04:08:30.870Z,13.82
2018-09-19T04:11:03.344Z,13.76
2018-09-19T04:13:36.186Z,13.65
2018-09-19T04:16:08.709Z,13.56
2018-09-19T04:18:41.263Z,13.49
2018-09-19T04:21:14.115Z,13.40
2018-09-19T04:23:46.917Z,13.35
2018-09-19T04:26:19.485Z,13.33
2018-09-19T04:28:54.512Z,13.27
2018-09-19T04:31:27.081Z,13.21
2018-09-19T04:34:01.126Z,13.19
2018-09-19T04:36:34.649Z,13.19
2018-09-19T04:39:11.128Z,13.21
2018-09-19T04:41:43.797Z,13.22
2018-09-19T04:44:17.332Z,13.22
2018-09-19T04:46:49.980Z,13.25
2018-09-19T04:49:22.588Z,13.24
2018-09-19T04:51:55.518Z,13.32
2018-09-19T04:54:28.937Z,13.34
2018-09-19T04:57:01.409Z,13.26
2018-09-19T04:59:34.507Z,13.27
2018-09-19T05:02:06.974Z,13.40
2018-09-19T05:04:39.675Z,13.39
2018-09-19T05:07:13.418Z,13.43
2018-09-19T05:09:46.047Z,13.45
2018-09-19T05:12:18.701Z,13.50
2018-09-19T05:14:52.835Z,13.59
2018-09-19T05:17:25.274Z,13.75
2018-09-19T05:19:58.062Z,13.77
2018-09-19T05:22:32.495Z,13.82
2018-09-19T05:25:06.368Z,13.86
2018-09-19T05:27:38.852Z,13.94
2018-09-19T05:30:14.545Z,14.09
2018-09-19T05:32:47.066Z,14.17
2018-09-19T05:35:19.732Z,14.30
2018-09-19T05:37:53.711Z,14.49
2018-09-19T05:40:26.863Z,14.62
2018-09-19T05:43:00.341Z,14.75
2018-09-19T05:45:34.542Z,14.88
2018-09-19T05:48:07.272Z,14.99
2018-09-19T05:50:39.841Z,15.15
2018-09-19T05:53:15.293Z,15.31
2018-09-19T05:55:47.882Z,15.52
2018-09-19T05:58:20.439Z,15.71
2018-09-19T06:00:54.063Z,15.77
2018-09-19T06:03:26.684Z,15.90
2018-09-19T06:05:59.758Z,16.00
2018-09-19T06:08:33.312Z,16.14
2018-09-19T06:11:11.006Z,16.24
2018-09-19T06:13:44.044Z,16.27
2018-09-19T06:16:16.449Z,16.34
2018-09-19T06:18:49.265Z,16.47
2018-09-19T06:21:22.638Z,16.68
2018-09-19T06:23:56.307Z,16.87
2018-09-19T06:26:33.334Z,17.08
2018-09-19T06:29:07.100Z,17.30
2018-09-19T06:31:39.686Z,17.50
2018-09-19T06:34:12.753Z,17.69
2018-09-19T06:36:45.552Z,17.80
2018-09-19T06:39:18.024Z,17.97
2018-09-19T06:41:50.825Z,18.11
2018-09-19T06:44:24.582Z,18.26
2018-09-19T06:46:59.156Z,18.38
2018-09-19T06:49:32.301Z,18.37
2018-09-19T06:52:04.870Z,18.44
2018-09-19T06:54:37.507Z,18.55
2018-09-19T06:57:10.568Z,18.67
2018-09-19T06:59:43.247Z,18.81
2018-09-19T07:02:15.756Z,18.90
2018-09-19T07:04:49.668Z,19.01
2018-09-19T07:07:23.154Z,19.11
2018-09-19T07:09:55.797Z,19.23
2018-09-19T07:12:31.001Z,19.30
2018-09-19T07:15:05.932Z,19.43
2018-09-19T07:17:38.404Z,19.58
2018-09-19T07:20:11.349Z,19.71
2018-09-19T07:22:45.648Z,19.88
2018-09-19T07:25:18.870Z,19.98
2018-09-19T07:27:52.679Z,20.06
2018-09-19T07:30:26.175Z,20.11
2018-09-19T07:32:58.563Z,20.19
2018-09-19T07:35:33.696Z,20.27
2018-09-19T07:38:06.854Z,20.35
2018-09-19T07:40:41.092Z,20.41
2018-09-19T07:43:16.060Z,20.45
2018-09-19T07:45:50.539Z,20.51
2018-09-19T07:48:23.783Z,20.57
2018-09-19T07:50:56.215Z,20.63
2018-09-19T07:53:34.428Z,20.70
2018-09-19T07:56:06.956Z,20.74
2018-09-19T07:58:44.024Z,20.79
2018-09-19T08:01:17.128Z,20.85
2018-09-19T08:03:49.910Z,20.90
2018-09-19T08:06:23.830Z,20.96
2018-09-19T08:08:58.282Z,21.07
2018-09-19T08:11:31.362Z,21.23
2018-09-19T08:14:05.217Z,21.41
2018-09-19T08:16:41.631Z,21.82
2018-09-19T08:19:16.933Z,22.69
2018-09-19T08:21:52.192Z,23.29
2018-09-19T08:24:25.302Z,23.69
2018-09-19T08:26:57.887Z,23.89
2018-09-19T08:29:31.803Z,24.03
2018-09-19T08:32:08.082Z,24.01
2018-09-19T08:34:41.709Z,24.33
2018-09-19T08:37:15.250Z,24.38
2018-09-19T08:39:55.444Z,24.02
2018-09-19T08:42:28.608Z,23.77
2018-09-19T08:45:03.619Z,23.66
2018-09-19T08:47:37.044Z,23.65
2018-09-19T08:50:09.583Z,23.61
2018-09-19T08:52:42.146Z,23.74
2018-09-19T08:55:15.344Z,24.10
2018-09-19T08:57:47.938Z,24.65
2018-09-19T09:00:24.138Z,25.17
2018-09-19T09:02:57.547Z,25.48
2018-09-19T09:05:31.696Z,25.34
2018-09-19T09:08:07.212Z,25.10
2018-09-19T09:10:56.872Z,24.84
2018-09-19T09:13:29.505Z,24.66
2018-09-19T09:18:43.888Z,24.99
2018-09-19T09:21:18.911Z,25.45
2018-09-19T09:23:52.163Z,25.73
2018-09-19T09:26:28.294Z,25.88
2018-09-19T09:29:17.731Z,26.25
2018-09-19T09:31:51.442Z,26.56
2018-09-19T09:34:24.593Z,26.63
2018-09-19T09:36:58.515Z,26.59
2018-09-19T09:39:31.990Z,26.62
2018-09-19T09:42:05.794Z,26.70
2018-09-19T09:44:38.455Z,26.76
2018-09-19T09:47:13.752Z,26.92
2018-09-19T09:49:48.184Z,26.84
2018-09-19T09:52:23.399Z,26.87
2018-09-19T09:54:56.751Z,27.22
2018-09-19T09:57:29.697Z,27.47
2018-09-19T10:00:08.172Z,27.49
2018-09-19T10:02:43.427Z,27.57
2018-09-19T10:05:17.317Z,27.44
2018-09-19T10:07:51.744Z,27.34
2018-09-19T10:10:30.378Z,27.48
2018-09-19T10:13:04.839Z,27.81
2018-09-19T10:15:40.889Z,27.60
2018-09-19T10:18:21.690Z,27.61
2018-09-19T10:20:54.254Z,27.85
2018-09-19T10:23:28.276Z,27.94
2018-09-19T10:26:03.605Z,27.79
2018-09-19T10:28:38.322Z,27.86
2018-09-19T10:31:11.966Z,28.15
2018-09-19T10:33:44.770Z,28.22
2018-09-19T10:36:18.884Z,28.32
2018-09-19T10:38:54.610Z,28.35
2018-09-19T10:41:29.825Z,28.19
2018-09-19T10:44:10.611Z,27.67
2018-09-19T10:46:49.905Z,27.62
2018-09-19T10:49:24.958Z,28.03
2018-09-19T10:52:00.429Z,28.00
2018-09-19T10:54:35.650Z,27.61
2018-09-19T10:57:12.848Z,27.42
2018-09-19T10:59:46.727Z,27.10
2018-09-19T11:02:19.328Z,26.90
2018-09-19T11:04:53.913Z,26.97
2018-09-19T11:07:30.212Z,27.02
2018-09-19T11:10:06.633Z,26.84
2018-09-19T11:12:39.227Z,26.83
2018-09-19T11:15:18.648Z,27.07
2018-09-19T11:17:58.321Z,27.41
2018-09-19T11:20:31.732Z,27.84
2018-09-19T11:23:05.828Z,28.10
2018-09-19T11:25:44.957Z,28.38
2018-09-19T11:28:17.685Z,28.74
2018-09-19T11:30:50.744Z,28.88
2018-09-19T11:33:35.334Z,28.93
2018-09-19T11:36:09.537Z,29.01
2018-09-19T11:38:42.616Z,28.74
2018-09-19T11:41:17.713Z,28.34
2018-09-19T11:43:51.442Z,27.97
2018-09-19T11:46:26.276Z,27.73
2018-09-19T11:49:00.078Z,27.53
2018-09-19T11:51:33.286Z,27.49
2018-09-19T11:54:07.434Z,27.42
2018-09-19T11:56:42.668Z,27.46
2018-09-19T11:59:18.714Z,27.39
2018-09-19T12:01:57.192Z,27.41
2018-09-19T12:04:30.715Z,27.68
2018-09-19T12:07:04.444Z,27.86
2018-09-19T12:09:37.577Z,27.92
2018-09-19T12:12:10.687Z,27.74
2018-09-19T12:14:44.722Z,27.72
2018-09-19T12:17:20.398Z,27.81
2018-09-19T12:19:54.924Z,27.87
2018-09-19T12:22:30.303Z,28.01
2018-09-19T12:25:04.451Z,27.80
2018-09-19T12:27:39.996Z,27.63
2018-09-19T12:30:17.581Z,27.58
2018-09-19T12:32:50.680Z,27.49
2018-09-19T12:35:24.787Z,27.37
2018-09-19T12:37:58.645Z,27.28
2018-09-19T12:40:31.256Z,27.35
2018-09-19T12:43:05.176Z,27.62
2018-09-19T12:45:39.144Z,27.96
2018-09-19T12:48:13.143Z,28.08
2018-09-19T12:50:48.832Z,28.09
2018-09-19T12:53:24.808Z,28.31
2018-09-19T12:55:57.840Z,28.57
2018-09-19T12:58:32.032Z,28.59
2018-09-19T13:01:06.317Z,28.37
2018-09-19T13:03:46.877Z,28.39
2018-09-19T13:06:21.766Z,28.59
2018-09-19T13:08:57.011Z,28.72
2018-09-19T13:11:30.649Z,28.83
2018-09-19T13:14:04.279Z,28.99
2018-09-19T13:16:39.525Z,29.12
2018-09-19T13:19:12.764Z,29.12
2018-09-19T13:21:47.661Z,29.11
2018-09-19T13:24:20.364Z,29.32
2018-09-19T13:26:56.538Z,29.67
2018-09-19T13:29:29.952Z,29.91
2018-09-19T13:32:02.392Z,29.74
2018-09-19T13:34:37.040Z,29.59
2018-09-19T13:37:10.275Z,29.58
2018-09-19T13:39:44.384Z,29.74
2018-09-19T13:42:17.053Z,30.05
2018-09-19T13:44:51.444Z,30.01
2018-09-19T13:47:24.605Z,29.98
2018-09-19T13:50:29.904Z,29.65
2018-09-19T13:53:05.654Z,29.68
2018-09-19T13:55:38.623Z,29.77
2018-09-19T13:58:12.356Z,29.99
2018-09-19T14:00:47.752Z,30.07
2018-09-19T14:03:24.086Z,29.70
2018-09-19T14:06:00.278Z,29.19
2018-09-19T14:08:42.837Z,29.12
2018-09-19T14:11:24.971Z,29.19
2018-09-19T14:13:58.220Z,29.12
2018-09-19T14:16:32.053Z,29.23
2018-09-19T14:19:07.406Z,29.55
2018-09-19T14:21:42.672Z,29.52
2018-09-19T14:24:16.431Z,29.48
2018-09-19T14:26:49.544Z,29.53
2018-09-19T14:29:25.733Z,29.81
2018-09-19T14:32:00.983Z,29.69
2018-09-19T14:34:35.945Z,29.44
2018-09-19T14:37:10.722Z,29.31
2018-09-19T14:39:59.957Z,29.43
2018-09-19T14:42:46.828Z,29.69
2018-09-19T14:45:21.732Z,29.72
2018-09-19T14:47:58.904Z,29.28
2018-09-19T14:50:34.824Z,29.23
2018-09-19T14:53:11.677Z,29.36
2018-09-19T14:55:46.142Z,29.62
2018-09-19T14:58:19.892Z,29.89
2018-09-19T15:00:52.445Z,30.16
2018-09-19T15:03:25.045Z,30.16
2018-09-19T15:06:01.484Z,30.20
2018-09-19T15:08:38.705Z,30.22
2018-09-19T15:11:18.297Z,30.23
2018-09-19T15:13:52.337Z,30.31
2018-09-19T15:16:27.315Z,30.28
2018-09-19T15:19:00.697Z,30.16
2018-09-19T15:21:33.757Z,30.34
2018-09-19T15:24:06.376Z,30.36
2018-09-19T15:26:40.079Z,30.15
2018-09-19T15:29:16.800Z,30.11
2018-09-19T15:31:51.259Z,30.14
2018-09-19T15:34:27.985Z,30.22
2018-09-19T15:37:03.064Z,30.04
2018-09-19T15:39:38.220Z,30.06
2018-09-19T15:42:12.475Z,30.03
2018-09-19T15:44:49.550Z,29.77
2018-09-19T15:47:25.415Z,29.75
2018-09-19T15:50:04.945Z,29.75
2018-09-19T15:52:38.290Z,29.60
2018-09-19T15:55:12.134Z,29.35
2018-09-19T15:57:46.927Z,29.14
2018-09-19T16:00:20.814Z,29.01
2018-09-19T16:02:54.464Z,29.01
2018-09-19T16:05:27.374Z,28.97
2018-09-19T16:08:01.724Z,29.05
2018-09-19T16:10:35.527Z,29.13
2018-09-19T16:13:08.973Z,29.16
2018-09-19T16:15:46.074Z,29.24
2018-09-19T16:18:26.290Z,29.12
2018-09-19T16:21:00.561Z,28.98
2018-09-19T16:23:34.712Z,28.96
2018-09-19T16:26:08.760Z,28.78
2018-09-19T16:28:44.808Z,28.67
2018-09-19T16:31:18.106Z,28.58
2018-09-19T16:33:51.953Z,28.55
2018-09-19T16:36:24.980Z,28.32
2018-09-19T16:38:59.047Z,28.03
2018-09-19T16:41:32.281Z,27.71
2018-09-19T16:44:07.482Z,27.44
2018-09-19T16:46:42.097Z,27.27
2018-09-19T16:49:16.056Z,27.26
2018-09-19T16:51:50.760Z,27.27
2018-09-19T16:54:24.620Z,27.16
2018-09-19T16:57:00.552Z,27.05
2018-09-19T16:59:35.249Z,26.97
2018-09-19T17:02:09.248Z,26.78
2018-09-19T17:04:44.774Z,26.61
2018-09-19T17:07:23.841Z,26.44
2018-09-19T17:10:03.720Z,26.25
2018-09-19T17:12:40.030Z,26.11
2018-09-19T17:15:18.656Z,26.02
2018-09-19T17:17:54.601Z,25.92
2018-09-19T17:20:33.389Z,25.81
2018-09-19T17:23:07.624Z,25.71
2018-09-19T17:25:41.336Z,25.63
2018-09-19T17:28:16.568Z,25.55
2018-09-19T17:30:49.504Z,25.45
2018-09-19T17:33:22.841Z,25.33
2018-09-19T17:35:55.459Z,25.22
2018-09-19T17:38:31.758Z,25.07
2018-09-19T17:41:05.012Z,24.91
2018-09-19T17:43:39.516Z,24.77
2018-09-19T17:46:12.396Z,24.63
2018-09-19T17:48:45.352Z,24.52
2018-09-19T17:51:21.866Z,24.41
2018-09-19T17:53:59.222Z,24.32
2018-09-19T17:56:34.807Z,24.25
2018-09-19T17:59:10.147Z,24.19
2018-09-19T18:01:46.001Z,24.11
2018-09-19T18:04:24.489Z,24.06
2018-09-19T18:06:57.425Z,23.98
2018-09-19T18:09:30.077Z,23.84
2018-09-19T18:12:05.239Z,23.69
2018-09-19T18:14:40.783Z,23.59
2018-09-19T18:17:14.002Z,23.49
2018-09-19T18:19:49.618Z,23.42
2018-09-19T18:22:22.187Z,23.31
2018-09-19T18:25:00.170Z,23.16
2018-09-19T18:27:34.439Z,23.01
2018-09-19T18:30:08.524Z,22.98
2018-09-19T18:32:44.757Z,22.92
2018-09-19T18:35:19.525Z,22.85
2018-09-19T18:37:54.441Z,22.70
2018-09-19T18:40:28.602Z,22.54
2018-09-19T18:43:04.081Z,22.42
2018-09-19T18:45:37.757Z,22.38
2018-09-19T18:48:17.240Z,22.34
2018-09-19T18:50:51.364Z,22.19
2018-09-19T18:53:27.292Z,22.08
2018-09-19T18:56:02.979Z,21.93
2018-09-19T18:58:39.897Z,21.78
2018-09-19T19:01:15.908Z,21.64
2018-09-19T19:03:49.074Z,21.59
2018-09-19T19:06:23.198Z,21.63
2018-09-19T19:08:56.439Z,21.58
2018-09-19T19:11:32.233Z,21.51
2018-09-19T19:14:07.381Z,21.42
2018-09-19T19:16:42.336Z,21.36
2018-09-19T19:19:16.824Z,21.32
2018-09-19T19:21:56.179Z,21.22
2018-09-19T19:24:32.686Z,21.25
2018-09-19T19:27:07.242Z,21.20
2018-09-19T19:29:41.652Z,21.17
2018-09-19T19:32:15.546Z,21.15
2018-09-19T19:34:48.753Z,21.11
2018-09-19T19:37:21.445Z,21.03
2018-09-19T19:39:55.921Z,20.91
2018-09-19T19:42:28.524Z,20.81
2018-09-19T19:45:03.382Z,20.67
2018-09-19T19:47:36.429Z,20.54
2018-09-19T19:50:14.010Z,20.44
2018-09-19T19:52:47.585Z,20.41
2018-09-19T19:55:23.065Z,20.33
2018-09-19T19:57:58.461Z,20.27
2018-09-19T20:00:35.926Z,20.17
2018-09-19T20:03:13.103Z,20.10
2018-09-19T20:05:46.337Z,19.96
2018-09-19T20:08:19.799Z,19.82
2018-09-19T20:10:55.835Z,19.67
2018-09-19T20:13:29.932Z,19.61
2018-09-19T20:16:05.453Z,19.57
2018-09-19T20:18:39.899Z,19.53
2018-09-19T20:21:16.429Z,19.41
2018-09-19T20:23:49.685Z,19.32
2018-09-19T20:26:22.357Z,19.17
2018-09-19T20:28:56.779Z,19.02
2018-09-19T20:31:33.733Z,18.87
2018-09-19T20:34:07.399Z,18.70
2018-09-19T20:36:40.179Z,18.53
2018-09-19T20:39:15.841Z,18.39
2018-09-19T20:41:49.560Z,18.25
2018-09-19T20:44:22.556Z,18.20
2018-09-19T20:46:56.138Z,18.14
2018-09-19T20:49:30.200Z,18.06
2018-09-19T20:52:03.690Z,17.91
2018-09-19T20:54:38.957Z,17.82
2018-09-19T20:57:12.593Z,17.80
2018-09-19T20:59:47.003Z,17.73
2018-09-19T21:02:22.626Z,17.68
2018-09-19T21:04:56.523Z,17.75
2018-09-19T21:07:29.042Z,17.92
2018-09-19T21:10:04.651Z,18.07
2018-09-19T21:12:38.493Z,18.21
2018-09-19T21:15:14.292Z,18.27
2018-09-19T21:17:48.152Z,18.19
2018-09-19T21:20:21.002Z,18.14
2018-09-19T21:22:55.161Z,18.22
2018-09-19T21:25:29.853Z,18.27
2018-09-19T21:28:03.875Z,18.32
2018-09-19T21:30:39.331Z,18.34
2018-09-19T21:33:12.921Z,18.36
2018-09-19T21:35:47.289Z,18.30
2018-09-19T21:38:22.012Z,18.25
2018-09-19T21:40:55.028Z,18.25
2018-09-19T21:43:43.788Z,18.26
2018-09-19T21:46:21.983Z,18.19
2018-09-19T21:48:55.944Z,18.17
2018-09-19T21:51:28.660Z,18.25
2018-09-19T21:54:04.281Z,18.38
2018-09-19T21:56:37.232Z,18.46
2018-09-19T21:59:09.779Z,18.53
2018-09-19T22:01:43.162Z,18.56
2018-09-19T22:04:15.608Z,18.58
2018-09-19T22:06:53.843Z,18.49
2018-09-19T22:09:28.166Z,18.45
2018-09-19T22:12:00.786Z,18.33
2018-09-19T22:14:34.845Z,18.20
2018-09-19T22:17:08.469Z,18.04
2018-09-19T22:19:42.815Z,17.86
2018-09-19T22:22:17.295Z,17.77
2018-09-19T22:24:49.803Z,17.87
2018-09-19T22:27:27.082Z,17.71
2018-09-19T22:29:59.644Z,17.56
2018-09-19T22:32:33.441Z,17.52
2018-09-19T22:35:08.860Z,17.42
2018-09-19T22:37:42.480Z,17.32
2018-09-19T22:40:15.581Z,17.31
2018-09-19T22:42:50.412Z,17.34
2018-09-19T22:45:23.878Z,17.31
2018-09-19T22:47:56.732Z,17.26
2018-09-19T22:50:29.781Z,17.16
2018-09-19T22:53:02.941Z,17.02
2018-09-19T22:55:37.047Z,16.99
2018-09-19T22:58:10.880Z,17.01
2018-09-19T23:00:47.763Z,17.08
2018-09-19T23:03:20.934Z,17.14
2018-09-19T23:05:54.308Z,17.02
2018-09-19T23:08:29.656Z,16.86
2018-09-19T23:11:02.857Z,16.70
2018-09-19T23:13:36.008Z,16.46
2018-09-19T23:16:08.536Z,16.49
2018-09-19T23:18:41.156Z,16.70
2018-09-19T23:21:14.173Z,16.78
2018-09-19T23:23:46.700Z,16.66
2018-09-19T23:26:19.341Z,16.50
2018-09-19T23:28:53.246Z,16.48
2018-09-19T23:31:25.913Z,16.41
2018-09-19T23:33:58.426Z,16.48
2018-09-19T23:36:31.240Z,16.32
2018-09-19T23:39:07.091Z,16.13
2018-09-19T23:41:39.813Z,16.01
2018-09-19T23:44:12.842Z,15.96
2018-09-19T23:46:45.482Z,15.90
2018-09-19T23:49:19.297Z,15.75
2018-09-19T23:51:54.733Z,15.62
2018-09-19T23:54:29.648Z,15.61
2018-09-19T23:57:02.612Z,15.68
2018-09-19T23:59:37.127Z,15.68
